Etihad Airways Virtual Airport Information Service

Istanbul Airport

ICAO: LTFM Country: Turkey
Latitude: 41.2671 Longitude: 28.7298
Latest Arrival : QTR3219 (3) (OTHH-LTFM) Latest Departure : ETD96 (LTFM-OMAA)


WX CaptureLIVE
Data provided by noaa.gov | Recorded at 10:23:31

METAR : LTFM 250950Z 01017KT 9999 -SHSN FEW016 BKN025 M01/M04 Q1027 NOSIG RMK RWY17L 36018KT RWY34L 35018KT RWY16R 36016KT RWY36 36019KT RWY18 36017KT

TAF : LTFM 250440Z 2506/2612 36020G30KT 9999 -SHSN FEW010 BKN025 PROB30 TEMPO 2509/2512 0800 SHSN FEW018CB BKN022 BECMG 2513/2515 36015KT TEMPO 2517/2521 0800 SHSN FEW018CB BKN022


Runway Data for LTFM
Data provided by openaviationdata.com

Runway ID Mag Var Hdg Length Elevation Surface ILS Freq ILS Id ILS Slope

Istanbul Airport, Turkey
Use only for reference purposes